sensor_id;sensor_type;location;lat;lon;timestamp;pressure;altitude;pressure_sealevel;temperature;humidity
71465;BME280;59274;49.874;9.154;2023-08-17T00:01:29;100412.59;;;18.15;100.00
71465;BME280;59274;49.874;9.154;2023-08-17T00:03:55;100408.81;;;18.05;100.00
71465;BME280;59274;49.874;9.154;2023-08-17T00:06:20;100415.88;;;18.06;100.00
71465;BME280;59274;49.874;9.154;2023-08-17T00:08:45;100426.47;;;18.08;100.00
71465;BME280;59274;49.874;9.154;2023-08-17T00:11:11;100439.84;;;18.06;100.00
71465;BME280;59274;49.874;9.154;2023-08-17T00:13:36;100428.56;;;18.00;100.00
71465;BME280;59274;49.874;9.154;2023-08-17T00:16:02;100431.19;;;18.07;100.00
71465;BME280;59274;49.874;9.154;2023-08-17T00:18:30;100434.06;;;18.00;100.00
71465;BME280;59274;49.874;9.154;2023-08-17T00:20:55;100440.69;;;18.03;100.00
71465;BME280;59274;49.874;9.154;2023-08-17T00:23:21;100453.59;;;18.06;100.00
71465;BME280;59274;49.874;9.154;2023-08-17T00:25:47;100443.66;;;18.12;100.00
71465;BME280;59274;49.874;9.154;2023-08-17T00:28:13;100435.13;;;18.06;100.00
71465;BME280;59274;49.874;9.154;2023-08-17T00:30:39;100429.88;;;18.15;100.00
71465;BME280;59274;49.874;9.154;2023-08-17T00:33:05;100433.81;;;18.14;100.00
71465;BME280;59274;49.874;9.154;2023-08-17T00:35:31;100431.03;;;18.18;100.00
71465;BME280;59274;49.874;9.154;2023-08-17T00:37:57;100421.22;;;18.17;100.00
71465;BME280;59274;49.874;9.154;2023-08-17T00:40:23;100412.97;;;18.17;100.00
71465;BME280;59274;49.874;9.154;2023-08-17T00:42:48;100411.13;;;18.10;100.00
71465;BME280;59274;49.874;9.154;2023-08-17T00:45:15;100413.34;;;18.19;100.00
71465;BME280;59274;49.874;9.154;2023-08-17T00:47:41;100405.97;;;18.12;100.00
71465;BME280;59274;49.874;9.154;2023-08-17T00:50:07;100416.13;;;18.15;100.00
71465;BME280;59274;49.874;9.154;2023-08-17T00:52:33;100394.19;;;18.12;100.00
71465;BME280;59274;49.874;9.154;2023-08-17T00:55:00;100400.47;;;18.12;100.00
71465;BME280;59274;49.874;9.154;2023-08-17T00:57:26;100398.97;;;18.08;100.00
71465;BME280;59274;49.874;9.154;2023-08-17T00:59:52;100394.66;;;18.07;100.00
71465;BME280;59274;49.874;9.154;2023-08-17T01:02:18;100394.97;;;18.12;100.00
71465;BME280;59274;49.874;9.154;2023-08-17T01:04:44;100383.63;;;18.10;100.00
71465;BME280;59274;49.874;9.154;2023-08-17T01:07:09;100386.72;;;18.12;100.00
71465;BME280;59274;49.874;9.154;2023-08-17T01:09:35;100387.84;;;18.15;100.00
71465;BME280;59274;49.874;9.154;2023-08-17T01:12:31;100388.06;;;18.04;100.00
71465;BME280;59274;49.874;9.154;2023-08-17T01:17:29;100394.53;;;18.14;100.00
71465;BME280;59274;49.874;9.154;2023-08-17T01:19:58;100394.25;;;18.08;100.00
71465;BME280;59274;49.874;9.154;2023-08-17T01:22:26;100388.81;;;18.05;100.00
71465;BME280;59274;49.874;9.154;2023-08-17T01:24:55;100377.69;;;18.12;100.00
71465;BME280;59274;49.874;9.154;2023-08-17T01:27:23;100377.53;;;17.99;100.00
71465;BME280;59274;49.874;9.154;2023-08-17T01:29:50;100375.56;;;17.99;100.00
71465;BME280;59274;49.874;9.154;2023-08-17T01:32:40;100371.56;;;18.04;100.00
71465;BME280;59274;49.874;9.154;2023-08-17T01:35:18;100368.88;;;18.00;100.00
71465;BME280;59274;49.874;9.154;2023-08-17T01:37:50;100357.94;;;17.97;100.00
71465;BME280;59274;49.874;9.154;2023-08-17T01:40:18;100363.31;;;18.04;100.00
71465;BME280;59274;49.874;9.154;2023-08-17T01:42:44;100361.16;;;17.92;100.00
71465;BME280;59274;49.874;9.154;2023-08-17T01:45:10;100350.94;;;17.92;100.00
71465;BME280;59274;49.874;9.154;2023-08-17T01:47:36;100354.41;;;17.96;100.00
71465;BME280;59274;49.874;9.154;2023-08-17T01:50:01;100354.34;;;18.00;100.00
71465;BME280;59274;49.874;9.154;2023-08-17T01:52:27;100350.53;;;17.94;100.00
71465;BME280;59274;49.874;9.154;2023-08-17T01:54:53;100345.03;;;17.94;100.00
71465;BME280;59274;49.874;9.154;2023-08-17T01:57:19;100339.59;;;17.90;100.00
71465;BME280;59274;49.874;9.154;2023-08-17T01:59:44;100340.72;;;17.93;100.00
71465;BME280;59274;49.874;9.154;2023-08-17T02:02:10;100344.66;;;17.92;100.00
71465;BME280;59274;49.874;9.154;2023-08-17T02:04:37;100345.06;;;17.90;100.00
71465;BME280;59274;49.874;9.154;2023-08-17T02:07:03;100337.19;;;17.92;100.00
71465;BME280;59274;49.874;9.154;2023-08-17T02:09:28;100331.78;;;17.89;100.00
71465;BME280;59274;49.874;9.154;2023-08-17T02:11:54;100327.41;;;17.91;100.00
71465;BME280;59274;49.874;9.154;2023-08-17T02:14:19;100335.34;;;17.86;100.00
71465;BME280;59274;49.874;9.154;2023-08-17T02:16:45;100329.03;;;17.89;100.00
71465;BME280;59274;49.874;9.154;2023-08-17T02:19:10;100327.09;;;17.86;100.00
71465;BME280;59274;49.874;9.154;2023-08-17T02:21:35;100327.19;;;17.82;100.00
71465;BME280;59274;49.874;9.154;2023-08-17T02:24:04;100327.19;;;17.82;100.00
71465;BME280;59274;49.874;9.154;2023-08-17T02:26:30;100322.53;;;17.79;100.00
71465;BME280;59274;49.874;9.154;2023-08-17T02:28:55;100315.47;;;17.78;100.00
71465;BME280;59274;49.874;9.154;2023-08-17T02:31:21;100311.66;;;17.72;100.00
71465;BME280;59274;49.874;9.154;2023-08-17T02:33:46;100319.13;;;17.72;100.00
71465;BME280;59274;49.874;9.154;2023-08-17T02:36:11;100320.19;;;17.78;100.00
71465;BME280;59274;49.874;9.154;2023-08-17T02:38:37;100322.22;;;17.74;100.00
71465;BME280;59274;49.874;9.154;2023-08-17T02:41:02;100316.44;;;17.68;100.00
71465;BME280;59274;49.874;9.154;2023-08-17T02:43:28;100298.81;;;17.66;100.00
71465;BME280;59274;49.874;9.154;2023-08-17T02:45:53;100306.69;;;17.64;100.00
71465;BME280;59274;49.874;9.154;2023-08-17T02:48:22;100310.16;;;17.68;100.00
71465;BME280;59274;49.874;9.154;2023-08-17T02:50:47;100314.88;;;17.67;100.00
71465;BME280;59274;49.874;9.154;2023-08-17T02:53:12;100310.88;;;17.72;100.00
71465;BME280;59274;49.874;9.154;2023-08-17T02:55:38;100304.72;;;17.64;100.00
71465;BME280;59274;49.874;9.154;2023-08-17T02:58:03;100307.75;;;17.70;100.00
71465;BME280;59274;49.874;9.154;2023-08-17T03:00:29;100312.56;;;17.66;100.00
71465;BME280;59274;49.874;9.154;2023-08-17T03:02:54;100305.56;;;17.61;100.00
71465;BME280;59274;49.874;9.154;2023-08-17T03:05:19;100317.34;;;17.62;100.00
71465;BME280;59274;49.874;9.154;2023-08-17T03:07:45;100302.47;;;17.55;100.00
71465;BME280;59274;49.874;9.154;2023-08-17T03:10:10;100315.75;;;17.60;100.00
71465;BME280;59274;49.874;9.154;2023-08-17T03:12:36;100318.19;;;17.55;100.00
71465;BME280;59274;49.874;9.154;2023-08-17T03:15:04;100320.16;;;17.54;100.00
71465;BME280;59274;49.874;9.154;2023-08-17T03:17:30;100324.09;;;17.53;100.00
71465;BME280;59274;49.874;9.154;2023-08-17T03:19:55;100324.44;;;17.55;100.00
71465;BME280;59274;49.874;9.154;2023-08-17T03:22:24;100318.19;;;17.55;100.00
71465;BME280;59274;49.874;9.154;2023-08-17T03:24:50;100312.38;;;17.49;100.00
71465;BME280;59274;49.874;9.154;2023-08-17T03:27:15;100312.75;;;17.51;100.00
71465;BME280;59274;49.874;9.154;2023-08-17T03:29:41;100320.09;;;17.62;100.00
71465;BME280;59274;49.874;9.154;2023-08-17T03:32:06;100318.88;;;17.63;100.00
71465;BME280;59274;49.874;9.154;2023-08-17T03:34:31;100326.00;;;17.56;100.00
71465;BME280;59274;49.874;9.154;2023-08-17T03:36:57;100327.75;;;17.47;100.00
71465;BME280;59274;49.874;9.154;2023-08-17T03:39:22;100338.38;;;17.45;100.00
71465;BME280;59274;49.874;9.154;2023-08-17T03:41:48;100337.31;;;17.35;100.00
71465;BME280;59274;49.874;9.154;2023-08-17T03:44:13;100334.94;;;17.37;100.00
71465;BME280;59274;49.874;9.154;2023-08-17T03:46:40;100338.78;;;17.43;100.00
71465;BME280;59274;49.874;9.154;2023-08-17T03:49:06;100334.94;;;17.37;100.00
71465;BME280;59274;49.874;9.154;2023-08-17T03:51:31;100325.25;;;17.29;100.00
71465;BME280;59274;49.874;9.154;2023-08-17T03:53:57;100341.88;;;17.45;100.00
71465;BME280;59274;49.874;9.154;2023-08-17T03:56:22;100347.31;;;17.49;100.00
71465;BME280;59274;49.874;9.154;2023-08-17T03:58:53;100348.09;;;17.49;100.00
71465;BME280;59274;49.874;9.154;2023-08-17T04:01:18;100354.31;;;17.53;100.00
71465;BME280;59274;49.874;9.154;2023-08-17T04:03:44;100355.78;;;17.62;100.00
71465;BME280;59274;49.874;9.154;2023-08-17T04:06:09;100350.31;;;17.62;100.00
71465;BME280;59274;49.874;9.154;2023-08-17T04:08:38;100358.88;;;17.64;100.00
71465;BME280;59274;49.874;9.154;2023-08-17T04:11:04;100360.50;;;17.61;100.00
71465;BME280;59274;49.874;9.154;2023-08-17T04:13:30;100359.69;;;17.60;100.00
71465;BME280;59274;49.874;9.154;2023-08-17T04:15:55;100356.94;;;17.60;100.00
71465;BME280;59274;49.874;9.154;2023-08-17T04:18:21;100351.56;;;17.53;100.00
71465;BME280;59274;49.874;9.154;2023-08-17T04:20:50;100355.00;;;17.61;100.00
71465;BME280;59274;49.874;9.154;2023-08-17T04:23:15;100363.06;;;17.72;100.00
71465;BME280;59274;49.874;9.154;2023-08-17T04:25:41;100368.56;;;17.72;100.00
71465;BME280;59274;49.874;9.154;2023-08-17T04:28:07;100364.66;;;17.69;100.00
71465;BME280;59274;49.874;9.154;2023-08-17T04:30:32;100362.91;;;17.55;100.00
71465;BME280;59274;49.874;9.154;2023-08-17T04:32:58;100377.66;;;17.69;100.00
71465;BME280;59274;49.874;9.154;2023-08-17T04:35:23;100376.91;;;17.65;100.00
71465;BME280;59274;49.874;9.154;2023-08-17T04:37:49;100375.97;;;17.75;100.00
71465;BME280;59274;49.874;9.154;2023-08-17T04:40:14;100381.41;;;17.78;100.00
71465;BME280;59274;49.874;9.154;2023-08-17T04:42:40;100373.94;;;17.79;100.00
71465;BME280;59274;49.874;9.154;2023-08-17T04:45:06;100378.53;;;17.85;100.00
71465;BME280;59274;49.874;9.154;2023-08-17T04:47:31;100382.91;;;17.83;100.00
71465;BME280;59274;49.874;9.154;2023-08-17T04:49:57;100389.13;;;17.87;100.00
71465;BME280;59274;49.874;9.154;2023-08-17T04:52:22;100386.28;;;17.90;100.00
71465;BME280;59274;49.874;9.154;2023-08-17T04:54:48;100388.88;;;18.01;100.00
71465;BME280;59274;49.874;9.154;2023-08-17T04:57:13;100390.06;;;18.00;100.00
71465;BME280;59274;49.874;9.154;2023-08-17T04:59:40;100386.19;;;17.97;100.00
71465;BME280;59274;49.874;9.154;2023-08-17T05:02:05;100396.72;;;18.03;100.00
71465;BME280;59274;49.874;9.154;2023-08-17T05:04:30;100392.81;;;18.00;100.00
71465;BME280;59274;49.874;9.154;2023-08-17T05:06:56;100394.75;;;18.03;100.00
71465;BME280;59274;49.874;9.154;2023-08-17T05:09:22;100405.09;;;17.95;100.00
71465;BME280;59274;49.874;9.154;2023-08-17T05:11:47;100399.59;;;17.95;100.00
71465;BME280;59274;49.874;9.154;2023-08-17T05:14:13;100402.25;;;17.99;100.00
71465;BME280;59274;49.874;9.154;2023-08-17T05:16:38;100398.69;;;18.02;100.00
71465;BME280;59274;49.874;9.154;2023-08-17T05:19:04;100405.31;;;18.05;100.00
71465;BME280;59274;49.874;9.154;2023-08-17T05:21:29;100395.69;;;17.93;100.00
71465;BME280;59274;49.874;9.154;2023-08-17T05:23:55;100404.56;;;18.04;100.00
71465;BME280;59274;49.874;9.154;2023-08-17T05:26:21;100396.31;;;18.04;100.00
71465;BME280;59274;49.874;9.154;2023-08-17T05:28:47;100410.22;;;18.17;100.00
71465;BME280;59274;49.874;9.154;2023-08-17T05:31:13;100396.31;;;18.04;100.00
71465;BME280;59274;49.874;9.154;2023-08-17T05:33:39;100409.16;;;18.11;100.00
71465;BME280;59274;49.874;9.154;2023-08-17T05:36:06;100414.75;;;18.04;100.00
71465;BME280;59274;49.874;9.154;2023-08-17T05:38:32;100420.56;;;18.09;100.00
71465;BME280;59274;49.874;9.154;2023-08-17T05:40:58;100421.63;;;18.15;100.00
71465;BME280;59274;49.874;9.154;2023-08-17T05:43:24;100425.63;;;18.11;100.00
71465;BME280;59274;49.874;9.154;2023-08-17T05:45:50;100427.94;;;18.12;100.00
71465;BME280;59274;49.874;9.154;2023-08-17T05:48:15;100417.19;;;18.21;100.00
71465;BME280;59274;49.874;9.154;2023-08-17T05:50:41;100420.22;;;18.27;100.00
71465;BME280;59274;49.874;9.154;2023-08-17T05:53:07;100417.19;;;18.21;100.00
71465;BME280;59274;49.874;9.154;2023-08-17T05:55:33;100421.47;;;18.26;100.00
71465;BME280;59274;49.874;9.154;2023-08-17T05:57:59;100430.00;;;18.31;100.00
71465;BME280;59274;49.874;9.154;2023-08-17T06:00:24;100426.09;;;18.29;100.00
71465;BME280;59274;49.874;9.154;2023-08-17T06:02:52;100425.19;;;18.35;100.00
71465;BME280;59274;49.874;9.154;2023-08-17T06:05:23;100419.44;;;18.26;100.00
71465;BME280;59274;49.874;9.154;2023-08-17T06:07:50;100433.03;;;18.37;100.00
71465;BME280;59274;49.874;9.154;2023-08-17T06:10:15;100433.53;;;18.32;100.00
71465;BME280;59274;49.874;9.154;2023-08-17T06:12:41;100432.38;;;18.29;100.00
71465;BME280;59274;49.874;9.154;2023-08-17T06:15:07;100421.38;;;18.29;100.00
71465;BME280;59274;49.874;9.154;2023-08-17T06:17:33;100436.31;;;18.28;100.00
71465;BME280;59274;49.874;9.154;2023-08-17T06:19:58;100438.94;;;18.35;100.00
71465;BME280;59274;49.874;9.154;2023-08-17T06:22:24;100442.34;;;18.43;100.00
71465;BME280;59274;49.874;9.154;2023-08-17T06:24:49;100439.41;;;18.54;100.00
71465;BME280;59274;49.874;9.154;2023-08-17T06:27:14;100438.31;;;18.48;100.00
71465;BME280;59274;49.874;9.154;2023-08-17T06:29:40;100441.06;;;18.48;100.00
71465;BME280;59274;49.874;9.154;2023-08-17T06:32:07;100442.63;;;18.49;100.00
71465;BME280;59274;49.874;9.154;2023-08-17T06:34:32;100438.28;;;18.51;100.00
71465;BME280;59274;49.874;9.154;2023-08-17T06:37:02;100449.59;;;18.57;100.00
71465;BME280;59274;49.874;9.154;2023-08-17T06:39:28;100447.91;;;18.63;100.00
71465;BME280;59274;49.874;9.154;2023-08-17T06:41:54;100446.28;;;18.65;100.00
71465;BME280;59274;49.874;9.154;2023-08-17T06:44:19;100441.06;;;18.71;100.00
71465;BME280;59274;49.874;9.154;2023-08-17T06:46:45;100450.75;;;18.79;100.00
71465;BME280;59274;49.874;9.154;2023-08-17T06:49:11;100428.88;;;18.72;100.00
71465;BME280;59274;49.874;9.154;2023-08-17T06:51:38;100443.19;;;18.83;100.00
71465;BME280;59274;49.874;9.154;2023-08-17T06:54:04;100443.34;;;18.96;100.00
71465;BME280;59274;49.874;9.154;2023-08-17T06:56:29;100447.56;;;19.00;100.00
71465;BME280;59274;49.874;9.154;2023-08-17T06:58:55;100451.22;;;19.13;100.00
71465;BME280;59274;49.874;9.154;2023-08-17T07:01:20;100453.72;;;19.08;100.00
71465;BME280;59274;49.874;9.154;2023-08-17T07:03:46;100455.59;;;18.91;100.00
71465;BME280;59274;49.874;9.154;2023-08-17T07:06:13;100462.38;;;19.06;100.00
71465;BME280;59274;49.874;9.154;2023-08-17T07:08:38;100456.75;;;19.13;100.00
71465;BME280;59274;49.874;9.154;2023-08-17T07:11:04;100453.56;;;19.15;100.00
71465;BME280;59274;49.874;9.154;2023-08-17T07:13:31;100452.78;;;19.14;100.00
71465;BME280;59274;49.874;9.154;2023-08-17T07:15:56;100451.72;;;19.28;100.00
71465;BME280;59274;49.874;9.154;2023-08-17T07:18:21;100456.38;;;19.31;100.00
71465;BME280;59274;49.874;9.154;2023-08-17T07:20:47;100465.47;;;19.48;100.00
71465;BME280;59274;49.874;9.154;2023-08-17T07:23:12;100467.03;;;19.49;100.00
71465;BME280;59274;49.874;9.154;2023-08-17T07:25:38;100463.66;;;19.22;100.00
71465;BME280;59274;49.874;9.154;2023-08-17T07:28:04;100465.22;;;19.23;100.00
71465;BME280;59274;49.874;9.154;2023-08-17T07:30:29;100462.50;;;19.39;100.00
71465;BME280;59274;49.874;9.154;2023-08-17T07:32:55;100446.31;;;19.61;100.00
71465;BME280;59274;49.874;9.154;2023-08-17T07:35:20;100466.81;;;19.76;100.00
71465;BME280;59274;49.874;9.154;2023-08-17T07:37:45;100461.09;;;19.50;100.00
71465;BME280;59274;49.874;9.154;2023-08-17T07:40:11;100472.56;;;19.65;100.00
71465;BME280;59274;49.874;9.154;2023-08-17T07:42:36;100477.56;;;19.70;100.00
71465;BME280;59274;49.874;9.154;2023-08-17T07:45:03;100476.41;;;19.87;100.00
71465;BME280;59274;49.874;9.154;2023-08-17T07:47:31;100469.59;;;19.92;100.00
71465;BME280;59274;49.874;9.154;2023-08-17T07:49:57;100464.06;;;19.92;100.00
71465;BME280;59274;49.874;9.154;2023-08-17T07:52:23;100474.50;;;19.84;100.00
71465;BME280;59274;49.874;9.154;2023-08-17T07:54:48;100466.72;;;19.63;100.00
71465;BME280;59274;49.874;9.154;2023-08-17T07:57:14;100468.88;;;19.72;100.00
71465;BME280;59274;49.874;9.154;2023-08-17T07:59:39;100469.56;;;19.76;100.00
71465;BME280;59274;49.874;9.154;2023-08-17T08:02:05;100464.56;;;19.71;100.00
71465;BME280;59274;49.874;9.154;2023-08-17T08:04:31;100483.28;;;19.79;100.00
71465;BME280;59274;49.874;9.154;2023-08-17T08:06:56;100472.19;;;19.99;100.00
71465;BME280;59274;49.874;9.154;2023-08-17T08:09:22;100476.56;;;20.13;100.00
71465;BME280;59274;49.874;9.154;2023-08-17T08:11:47;100471.75;;;20.01;100.00
71465;BME280;59274;49.874;9.154;2023-08-17T08:14:12;100467.38;;;20.36;100.00
71465;BME280;59274;49.874;9.154;2023-08-17T08:16:38;100476.66;;;20.42;100.00
71465;BME280;59274;49.874;9.154;2023-08-17T08:19:03;100469.50;;;20.28;100.00
71465;BME280;59274;49.874;9.154;2023-08-17T08:21:29;100466.13;;;20.53;100.00
71465;BME280;59274;49.874;9.154;2023-08-17T08:23:56;100472.72;;;20.71;100.00
71465;BME280;59274;49.874;9.154;2023-08-17T08:26:21;100474.31;;;20.56;100.00
71465;BME280;59274;49.874;9.154;2023-08-17T08:28:47;100472.41;;;20.53;100.00
71465;BME280;59274;49.874;9.154;2023-08-17T08:31:12;100475.72;;;20.77;100.00
71465;BME280;59274;49.874;9.154;2023-08-17T08:33:38;100474.66;;;20.87;100.00
71465;BME280;59274;49.874;9.154;2023-08-17T08:36:03;100476.25;;;21.01;100.00
71465;BME280;59274;49.874;9.154;2023-08-17T08:38:31;100482.22;;;20.99;100.00
71465;BME280;59274;49.874;9.154;2023-08-17T08:40:57;100478.53;;;21.19;100.00
71465;BME280;59274;49.874;9.154;2023-08-17T08:43:23;100484.88;;;21.03;100.00
71465;BME280;59274;49.874;9.154;2023-08-17T08:45:50;100475.50;;;21.13;100.00
71465;BME280;59274;49.874;9.154;2023-08-17T08:48:18;100465.41;;;21.35;100.00
71465;BME280;59274;49.874;9.154;2023-08-17T08:50:45;100488.09;;;21.43;100.00
71465;BME280;59274;49.874;9.154;2023-08-17T08:53:14;100479.00;;;21.30;100.00
71465;BME280;59274;49.874;9.154;2023-08-17T08:55:50;100485.00;;;21.54;100.00
71465;BME280;59274;49.874;9.154;2023-08-17T08:58:18;100473.84;;;21.44;100.00
71465;BME280;59274;49.874;9.154;2023-08-17T09:00:46;100479.59;;;21.75;100.00
71465;BME280;59274;49.874;9.154;2023-08-17T09:03:14;100477.50;;;21.67;100.00
71465;BME280;59274;49.874;9.154;2023-08-17T09:05:40;100472.41;;;21.53;100.00
71465;BME280;59274;49.874;9.154;2023-08-17T09:08:09;100471.09;;;21.57;100.00
71465;BME280;59274;49.874;9.154;2023-08-17T09:10:38;100472.19;;;21.72;100.00
71465;BME280;59274;49.874;9.154;2023-08-17T09:13:03;100477.94;;;21.65;100.00
71465;BME280;59274;49.874;9.154;2023-08-17T09:15:30;100469.53;;;21.69;100.00
71465;BME280;59274;49.874;9.154;2023-08-17T09:17:56;100479.59;;;21.63;100.00
71465;BME280;59274;49.874;9.154;2023-08-17T09:20:43;100475.06;;;21.94;100.00
71465;BME280;59274;49.874;9.154;2023-08-17T09:23:12;100479.81;;;21.94;100.00
71465;BME280;59274;49.874;9.154;2023-08-17T09:25:42;100478.94;;;21.71;100.00
71465;BME280;59274;49.874;9.154;2023-08-17T09:28:17;100490.91;;;21.81;100.00
71465;BME280;59274;49.874;9.154;2023-08-17T09:31:02;100480.84;;;22.00;100.00
71465;BME280;59274;49.874;9.154;2023-08-17T09:33:31;100478.94;;;22.09;100.00
71465;BME280;59274;49.874;9.154;2023-08-17T09:35:59;100480.34;;;22.26;100.00
71465;BME280;59274;49.874;9.154;2023-08-17T09:38:25;100479.22;;;22.24;100.00
71465;BME280;59274;49.874;9.154;2023-08-17T09:40:51;100465.22;;;21.93;100.00
71465;BME280;59274;49.874;9.154;2023-08-17T09:43:18;100479.38;;;21.82;100.00
71465;BME280;59274;49.874;9.154;2023-08-17T09:45:47;100470.63;;;21.71;100.00
71465;BME280;59274;49.874;9.154;2023-08-17T09:48:16;100467.22;;;21.80;100.00
71465;BME280;59274;49.874;9.154;2023-08-17T09:50:43;100451.72;;;21.82;100.00
71465;BME280;59274;49.874;9.154;2023-08-17T09:53:18;100449.63;;;21.99;100.00
71465;BME280;59274;49.874;9.154;2023-08-17T09:55:47;100457.09;;;22.24;100.00
71465;BME280;59274;49.874;9.154;2023-08-17T09:58:13;100461.09;;;22.10;100.00
71465;BME280;59274;49.874;9.154;2023-08-17T10:00:49;100459.13;;;22.23;100.00
71465;BME280;59274;49.874;9.154;2023-08-17T10:03:16;100456.31;;;22.36;100.00
71465;BME280;59274;49.874;9.154;2023-08-17T10:05:49;100441.50;;;22.17;100.00
71465;BME280;59274;49.874;9.154;2023-08-17T10:08:20;100447.03;;;22.17;100.00
71465;BME280;59274;49.874;9.154;2023-08-17T10:10:46;100441.50;;;22.17;100.00
71465;BME280;59274;49.874;9.154;2023-08-17T10:13:33;100453.88;;;22.25;100.00
71465;BME280;59274;49.874;9.154;2023-08-17T10:16:16;100447.16;;;22.14;100.00
71465;BME280;59274;49.874;9.154;2023-08-17T10:18:53;100443.97;;;22.50;100.00
71465;BME280;59274;49.874;9.154;2023-08-17T10:21:48;100452.03;;;22.22;100.00
71465;BME280;59274;49.874;9.154;2023-08-17T10:24:17;100443.72;;;22.22;100.00
71465;BME280;59274;49.874;9.154;2023-08-17T10:26:44;100428.63;;;22.02;100.00
71465;BME280;59274;49.874;9.154;2023-08-17T10:29:10;100434.91;;;22.02;100.00
71465;BME280;59274;49.874;9.154;2023-08-17T10:31:35;100437.91;;;22.08;100.00
71465;BME280;59274;49.874;9.154;2023-08-17T10:34:01;100437.75;;;22.11;100.00
71465;BME280;59274;49.874;9.154;2023-08-17T10:36:29;100425.69;;;22.18;100.00
71465;BME280;59274;49.874;9.154;2023-08-17T10:39:22;100425.38;;;22.03;100.00
71465;BME280;59274;49.874;9.154;2023-08-17T10:41:50;100428.69;;;22.11;100.00
71465;BME280;59274;49.874;9.154;2023-08-17T10:44:47;100429.56;;;22.20;100.00
71465;BME280;59274;49.874;9.154;2023-08-17T10:47:28;100424.75;;;22.34;100.00
71465;BME280;59274;49.874;9.154;2023-08-17T10:50:05;100425.84;;;22.36;100.00
71465;BME280;59274;49.874;9.154;2023-08-17T10:52:33;100424.94;;;22.39;100.00
71465;BME280;59274;49.874;9.154;2023-08-17T10:55:04;100423.81;;;22.49;100.00
71465;BME280;59274;49.874;9.154;2023-08-17T10:57:35;100426.38;;;22.44;100.00
71465;BME280;59274;49.874;9.154;2023-08-17T11:00:22;100432.56;;;22.48;100.00
71465;BME280;59274;49.874;9.154;2023-08-17T11:02:59;100428.97;;;22.60;100.00
71465;BME280;59274;49.874;9.154;2023-08-17T11:05:44;100421.16;;;22.80;100.00
71465;BME280;59274;49.874;9.154;2023-08-17T11:08:32;100420.38;;;23.01;100.00
71465;BME280;59274;49.874;9.154;2023-08-17T11:11:14;100420.13;;;23.18;100.00
71465;BME280;59274;49.874;9.154;2023-08-17T11:13:44;100424.06;;;23.29;100.00
71465;BME280;59274;49.874;9.154;2023-08-17T11:16:11;100415.97;;;23.44;100.00
71465;BME280;59274;49.874;9.154;2023-08-17T11:18:37;100418.38;;;23.64;100.00
71465;BME280;59274;49.874;9.154;2023-08-17T11:21:04;100422.88;;;23.70;100.00
71465;BME280;59274;49.874;9.154;2023-08-17T11:23:31;100423.19;;;23.72;100.00
71465;BME280;59274;49.874;9.154;2023-08-17T11:25:58;100410.38;;;23.75;100.00
71465;BME280;59274;49.874;9.154;2023-08-17T11:28:24;100421.53;;;23.93;100.00
71465;BME280;59274;49.874;9.154;2023-08-17T11:31:00;100425.72;;;24.07;100.00
71465;BME280;59274;49.874;9.154;2023-08-17T11:33:27;100427.09;;;24.02;100.00
71465;BME280;59274;49.874;9.154;2023-08-17T11:35:56;100414.63;;;24.16;100.00
71465;BME280;59274;49.874;9.154;2023-08-17T11:38:22;100418.84;;;24.39;100.00
71465;BME280;59274;49.874;9.154;2023-08-17T11:40:49;100418.53;;;24.46;100.00
71465;BME280;59274;49.874;9.154;2023-08-17T11:43:14;100417.00;;;24.63;100.00
71465;BME280;59274;49.874;9.154;2023-08-17T11:45:40;100411.56;;;24.96;100.00
71465;BME280;59274;49.874;9.154;2023-08-17T11:48:06;100408.69;;;25.23;100.00
71465;BME280;59274;49.874;9.154;2023-08-17T11:50:32;100405.88;;;25.32;100.00
71465;BME280;59274;49.874;9.154;2023-08-17T11:53:01;100419.59;;;24.85;100.00
71465;BME280;59274;49.874;9.154;2023-08-17T11:55:27;100408.47;;;24.94;100.00
71465;BME280;59274;49.874;9.154;2023-08-17T11:57:53;100405.66;;;25.03;100.00
71465;BME280;59274;49.874;9.154;2023-08-17T12:00:20;100404.41;;;25.13;100.00
71465;BME280;59274;49.874;9.154;2023-08-17T12:02:50;100407.16;;;25.22;100.00
71465;BME280;59274;49.874;9.154;2023-08-17T12:05:21;100398.31;;;25.33;100.00
71465;BME280;59274;49.874;9.154;2023-08-17T12:07:48;100397.38;;;25.78;100.00
71465;BME280;59274;49.874;9.154;2023-08-17T12:10:14;100403.16;;;25.89;100.00
71465;BME280;59274;49.874;9.154;2023-08-17T12:12:39;100402.09;;;26.34;100.00
71465;BME280;59274;49.874;9.154;2023-08-17T12:15:05;100408.97;;;26.63;100.00
71465;BME280;59274;49.874;9.154;2023-08-17T12:17:31;100397.94;;;26.83;100.00
71465;BME280;59274;49.874;9.154;2023-08-17T12:19:58;100389.13;;;27.14;100.00
71465;BME280;59274;49.874;9.154;2023-08-17T12:22:24;100385.00;;;27.44;100.00
71465;BME280;59274;49.874;9.154;2023-08-17T12:24:51;100375.78;;;27.38;100.00
71465;BME280;59274;49.874;9.154;2023-08-17T12:27:17;100379.16;;;27.42;100.00
71465;BME280;59274;49.874;9.154;2023-08-17T12:29:50;100377.97;;;27.49;100.00
71465;BME280;59274;49.874;9.154;2023-08-17T12:32:17;100381.41;;;27.09;100.00
71465;BME280;59274;49.874;9.154;2023-08-17T12:34:42;100379.22;;;27.13;100.00
71465;BME280;59274;49.874;9.154;2023-08-17T12:37:09;100376.59;;;27.09;100.00
71465;BME280;59274;49.874;9.154;2023-08-17T12:39:35;100385.16;;;27.20;100.00
71465;BME280;59274;49.874;9.154;2023-08-17T12:42:01;100381.47;;;27.29;100.00
71465;BME280;59274;49.874;9.154;2023-08-17T12:44:27;100380.47;;;26.97;100.00